Latest Weather Observations for Avalon

IDV60801

Issued at 8:02 am EST Monday 27 April 2015 (issued every 30 minutes, with the page automatically refreshed every 10 minutes)

About weather observations | Map of weather stations | Latest weather observations for VIC | Other Formats
Station Details ID: 087113 Name: AVALON AIRPORT Lat: -38.03 Lon: 144.48 Height: 10.6 m
Data from the previous 72 hours. | See also: Recent months at Avalon
Date/Time
EST
Temp
°C
App
Temp
°C
Dew
Point
Rel
Hum
%
Delta-T
°C
Wind Press
QNH
hPa
Press
MSL
hPa
Rain
since 9 am
mm
Dir
 
Spd
km/h
Gust
km/h
Spd
kts
Gust
kts
27/08:00am 10.7 6.5 9.9 95 0.4 WNW 22 28 12 15 1023.0 1023.0 0.2
27/07:30am 9.9 6.5 9.1 95 0.4 WNW 17 22 9 12 1022.8 1022.8 0.2
27/07:00am 9.6 5.7 8.8 95 0.4 W 19 24 10 13 1022.5 1022.5 0.2
27/06:30am 9.7 5.7 8.9 95 0.4 WNW 20 24 11 13 1022.2 1022.2 0.2
27/06:00am 9.4 6.3 8.8 96 0.3 W 15 20 8 11 1022.0 1022.0 0.2
27/05:30am 9.1 5.1 8.2 94 0.4 W 19 24 10 13 1021.8 1021.8 0.2
27/05:00am 9.9 5.8 8.8 93 0.5 W 20 24 11 13 1021.6 1021.6 0.2
27/04:30am 10.0 6.6 9.1 94 0.4 W 17 24 9 13 1021.3 1021.3 0.2
27/04:00am 9.8 5.8 8.9 94 0.4 W 20 24 11 13 1021.2 1021.2 0.2
27/03:30am 9.9 5.5 9.0 94 0.4 W 22 32 12 17 1021.1 1021.1 0.2
27/03:00am 9.7 5.8 8.6 93 0.5 W 19 26 10 14 1021.1 1021.1 0.2
27/02:30am 9.6 5.1 8.4 92 0.6 W 22 28 12 15 1021.0 1021.0 0.2
27/02:00am 9.8 4.9 8.6 92 0.6 W 24 28 13 15 1020.9 1020.9 0.2
27/01:30am 9.8 4.9 8.6 92 0.6 W 24 30 13 16 1020.9 1020.9 0.2
27/01:00am 9.7 5.2 8.5 92 0.6 WNW 22 30 12 16 1020.9 1020.9 0.2
27/12:30am 9.6 5.4 8.2 91 0.7 WNW 20 24 11 13 1021.0 1021.0 0.2
27/12:00am 9.8 5.6 8.4 91 0.7 WNW 20 28 11 15 1021.1 1021.1 0.2
 
Date/Time
EST
Temp
°C
App
Temp
°C
Dew
Point
Rel
Hum
%
Delta-T
°C
Wind Press
QNH
hPa
Press
MSL
hPa
Rain
since 9 am
mm
Dir
 
Spd
km/h
Gust
km/h
Spd
kts
Gust
kts
26/11:30pm 10.1 5.2 8.5 90 0.8 WNW 24 32 13 17 1021.1 1021.1 0.2
26/11:00pm 10.1 6.0 8.5 90 0.8 W 20 26 11 14 1021.3 1021.3 0.2
26/10:30pm 10.4 6.3 8.5 88 0.9 WNW 20 26 11 14 1021.3 1021.3 0.2
26/10:00pm 9.8 6.5 8.1 89 0.8 WNW 15 19 8 10 1021.4 1021.4 0.2
26/09:30pm 10.3 6.3 8.4 88 0.9 W 19 26 10 14 1021.3 1021.3 0.2
26/09:00pm 10.8 6.2 8.0 83 1.4 W 22 26 12 14 1021.3 1021.3 0.2
26/08:30pm 11.1 7.0 8.0 81 1.5 W 19 28 10 15 1021.1 1021.1 0.2
26/08:00pm 10.8 6.7 7.7 81 1.5 W 19 24 10 13 1021.1 1021.1 0.2
26/07:30pm 11.8 7.5 7.9 77 1.9 W 20 35 11 19 1020.9 1020.9 0.2
26/07:00pm 11.9 7.7 8.2 78 1.8 W 20 28 11 15 1020.8 1020.8 0.2
26/06:30pm 11.6 7.4 8.3 80 1.6 W 20 28 11 15 1020.5 1020.5 0.2
26/06:00pm 12.0 7.8 8.3 78 1.8 W 20 28 11 15 1020.3 1020.3 0.2
26/05:30pm 12.4 8.3 8.5 77 1.9 W 20 30 11 16 1020.0 1020.0 0.2
26/05:00pm 13.5 7.6 7.5 67 2.9 WSW 28 35 15 19 1019.7 1019.7 0.2
26/04:30pm 13.5 8.5 8.1 70 2.7 W 24 33 13 18 1019.6 1019.6 0.2
26/04:00pm 14.2 7.2 7.0 62 3.5 WSW 33 44 18 24 1019.3 1019.3 0.2
26/03:30pm 14.5 8.6 7.3 62 3.5 WSW 28 37 15 20 1019.0 1019.0 0.2
26/03:00pm 15.2 8.3 7.2 59 3.9 WSW 33 41 18 22 1018.9 1018.9 0.2
26/02:30pm 14.7 9.3 8.2 65 3.3 WSW 26 35 14 19 1018.7 1018.7 0.2
26/02:00pm 15.1 9.9 7.2 59 3.9 WSW 24 32 13 17 1018.5 1018.5 0.2
26/01:30pm 15.1 10.0 7.6 61 3.7 SW 24 33 13 18 1018.5 1018.5 0.2
26/01:00pm 15.5 10.9 8.0 61 3.8 WSW 22 32 12 17 1018.4 1018.4 0.2
26/12:30pm 15.0 9.9 7.5 61 3.7 WSW 24 32 13 17 1018.7 1018.7 0.2
26/12:00pm 14.3 8.1 7.8 65 3.2 SW 30 39 16 21 1018.9 1018.9 0.2
26/11:30am 13.8 9.0 8.8 72 2.5 W 24 33 13 18 1019.1 1019.1 0.2
26/11:00am 13.1 8.5 9.7 80 1.7 WSW 24 33 13 18 1019.1 1019.1 0.2
26/10:50am 12.4 8.3 10.0 85 1.2 WSW 22 35 12 19 1019.2 1019.2 0.2
26/10:30am 11.6 7.4 9.9 89 0.9 WSW 22 33 12 18 1019.4 1019.4 0.0
26/10:27am 11.7 7.1 9.8 88 1.0 WSW 24 33 13 18 1019.4 1019.4 0.0
26/10:00am 12.1 8.3 9.8 86 1.2 WSW 20 28 11 15 1019.2 1019.2 0.0
26/09:41am 12.0 8.6 10.7 92 0.7 W 19 28 10 15 1019.0 1019.0 0.0
26/09:30am 11.0 7.3 10.1 94 0.5 W 20 30 11 16 1019.1 1019.1 0.0
26/09:24am 11.0 6.9 10.1 94 0.5 WSW 22 30 12 16 1019.1 1019.1 0.0
26/09:00am 10.8 6.7 10.0 95 0.4 W 22 30 12 16 1018.8 1018.8 13.6
26/08:53am 10.5 6.3 9.7 95 0.4 WSW 22 30 12 16 1019.0 1019.0 13.6
26/08:30am 10.2 5.9 9.4 95 0.4 WSW 22 30 12 16 1018.7 1018.7 13.6
26/08:19am 10.0 6.0 9.2 95 0.4 W 20 28 11 15 1018.6 1018.6 13.6
26/08:00am 9.7 4.9 8.9 95 0.4 W 24 30 13 16 1018.2 1018.2 13.6
26/07:35am 9.7 5.9 9.1 96 0.3 W 19 26 10 14 1017.9 1017.9 13.6
26/07:30am 9.6 5.6 9.0 96 0.3 W 20 26 11 14 1017.8 1017.8 13.6
26/07:13am 9.6 5.5 8.7 94 0.4 W 20 26 11 14 1017.7 1017.7 13.6
26/07:12am 9.6 5.5 8.7 94 0.4 W 20 24 11 13 1017.6 1017.6 13.4
26/07:00am 9.7 4.9 8.8 94 0.4 WSW 24 30 13 16 1017.3 1017.3 13.4
26/06:57am 9.8 5.0 8.7 93 0.5 WSW 24 30 13 16 1017.2 1017.2 13.4
26/06:30am 9.5 5.9 8.4 93 0.5 W 17 26 9 14 1017.1 1017.1 13.4
26/06:17am 9.5 5.5 8.4 93 0.5 W 19 24 10 13 1016.9 1016.9 13.4
26/06:04am 9.9 5.8 8.8 93 0.5 WSW 20 30 11 16 1016.9 1016.9 13.4
26/06:00am 9.8 5.8 8.9 94 0.4 W 20 28 11 15 1016.9 1016.9 13.4
26/05:30am 10.1 6.0 8.7 91 0.7 W 20 28 11 15 1016.7 1016.7 13.4
26/05:00am 10.0 5.8 8.4 90 0.8 W 20 35 11 19 1016.4 1016.4 13.4
26/04:30am 9.8 6.2 8.2 90 0.8 W 17 24 9 13 1016.1 1016.1 13.4
26/04:00am 10.4 7.3 8.8 90 0.8 WSW 15 19 8 10 1016.1 1016.1 13.4
26/03:48am 10.4 6.6 9.0 91 0.7 WSW 19 28 10 15 1015.9 1015.9 13.4
26/03:30am 10.4 6.6 9.0 91 0.7 W 19 26 10 14 1015.9 1015.9 13.2
26/03:15am 10.3 6.5 8.9 91 0.7 W 19 26 10 14 1015.9 1015.9 13.0
26/03:00am 10.5 7.0 8.8 89 0.8 W 17 24 9 13 1015.9 1015.9 13.0
26/02:30am 10.5 7.0 8.8 89 0.8 W 17 22 9 12 1015.8 1015.8 13.0
26/02:11am 10.5 7.3 8.6 88 0.9 W 15 24 8 13 1015.8 1015.8 13.0
26/02:00am 10.8 6.3 8.6 86 1.1 WSW 22 30 12 16 1015.8 1015.8 13.0
26/01:59am 10.8 6.3 8.4 85 1.2 WSW 22 30 12 16 1015.8 1015.8 13.0
26/01:30am 11.5 7.3 8.4 81 1.5 WSW 20 28 11 15 1015.8 1015.8 13.0
26/01:00am 11.7 8.1 8.2 79 1.7 WSW 17 20 9 11 1015.5 1015.5 13.0
26/12:30am 11.8 7.6 8.1 78 1.8 W 20 30 11 16 1015.3 1015.3 13.0
26/12:00am 11.8 7.9 8.6 81 1.6 W 19 24 10 13 1014.9 1014.9 13.0
 
Date/Time
EST
Temp
°C
App
Temp
°C
Dew
Point
Rel
Hum
%
Delta-T
°C
Wind Press
QNH
hPa
Press
MSL
hPa
Rain
since 9 am
mm
Dir
 
Spd
km/h
Gust
km/h
Spd
kts
Gust
kts
25/11:30pm 11.9 8.2 9.3 84 1.3 W 19 24 10 13 1014.9 1014.9 13.0
25/11:00pm 11.7 8.5 9.9 89 0.9 W 17 22 9 12 1014.8 1014.8 13.0
25/10:30pm 12.1 8.3 9.7 85 1.2 WSW 20 28 11 15 1014.7 1014.7 13.0
25/10:00pm 12.9 8.2 9.4 79 1.8 WSW 24 33 13 18 1014.5 1014.5 13.0
25/09:30pm 12.9 7.8 9.2 78 1.9 WSW 26 33 14 18 1014.2 1014.2 13.0
25/09:00pm 13.1 8.4 9.4 78 1.9 WSW 24 32 13 17 1013.9 1013.9 13.0
25/08:30pm 13.3 9.5 9.7 79 1.8 SW 20 30 11 16 1013.5 1013.5 13.0
25/08:00pm 13.4 7.1 9.8 79 1.8 SW 33 44 18 24 1013.2 1013.2 13.0
25/07:30pm 13.7 7.8 10.5 81 1.7 SSW 32 43 17 23 1013.0 1013.0 13.0
25/07:00pm 13.7 7.4 10.9 83 1.5 SSW 35 46 19 25 1012.6 1012.6 13.0
25/06:30pm 13.9 7.9 10.7 81 1.7 SSW 33 39 18 21 1012.0 1012.0 13.0
25/06:00pm 13.7 8.0 11.0 84 1.4 SSW 32 44 17 24 1011.4 1011.4 13.0
25/05:30pm 14.2 8.9 11.2 82 1.6 SSW 30 37 16 20 1010.9 1010.9 13.0
25/05:00pm 14.3 9.8 11.5 83 1.5 SSW 26 33 14 18 1010.6 1010.6 13.0
25/04:30pm 14.4 10.1 11.9 85 1.3 SSW 26 32 14 17 1010.3 1010.3 13.0
25/04:00pm 13.7 9.5 12.3 91 0.8 SSW 26 33 14 18 1010.1 1010.1 13.0
25/03:30pm 14.0 11.1 12.4 90 0.9 SSW 19 28 10 15 1009.8 1009.8 12.6
25/03:00pm 13.4 13.1 13.2 99 0.1 WNW 7 13 4 7 1009.6 1009.6 12.4
25/02:30pm 13.1 11.5 12.9 99 0.1 WNW 13 19 7 10 1009.2 1009.2 11.8
25/02:23pm 13.2 12.1 13.0 99 0.1 NW 11 17 6 9 1009.2 1009.2 11.2
25/02:00pm 13.0 10.6 12.7 98 0.2 W 17 22 9 12 1009.0 1009.0 10.0
25/01:30pm 13.2 11.5 12.4 95 0.4 W 13 19 7 10 1008.9 1008.9 5.0
25/01:19pm 13.3 11.6 12.4 94 0.5 W 13 17 7 9 1008.8 1008.8 2.8
25/01:15pm 13.3 11.5 12.2 93 0.6 W 13 19 7 10 1008.8 1008.8 2.2
25/01:04pm 13.4 11.2 12.1 92 0.7 W 15 20 8 11 1008.8 1008.8 1.6
25/01:00pm 13.4 10.8 12.1 92 0.7 W 17 24 9 13 1008.8 1008.8 1.2
25/12:30pm 14.2 11.6 11.9 86 1.2 W 17 24 9 13 1008.8 1008.8 0.0
25/12:00pm 14.1 11.6 12.3 89 1.0 WNW 17 20 9 11 1008.9 1008.9 0.0
25/11:30am 13.5 11.2 11.9 90 0.9 WNW 15 19 8 10 1009.2 1009.2 0.0
25/11:10am 13.1 10.4 11.8 92 0.7 WNW 17 19 9 10 1009.3 1009.3 0.0
25/11:00am 12.8 10.0 11.5 92 0.7 WNW 17 20 9 11 1009.1 1009.1 0.0
25/10:30am 12.1 8.9 11.2 94 0.5 WNW 19 20 10 11 1009.1 1009.1 0.0
25/10:00am 11.7 8.8 10.9 95 0.4 NW 17 20 9 11 1009.1 1009.1 0.0
25/09:36am 11.6 8.3 10.8 95 0.4 NW 19 20 10 11 1008.9 1008.9 0.0
25/09:30am 11.6 8.7 11.0 96 0.3 WNW 17 20 9 11 1008.9 1008.9 0.0
25/09:00am 11.3 9.0 10.5 95 0.4 WNW 13 19 7 10 1008.8 1008.8 10.0
25/08:30am 11.1 9.1 10.2 94 0.5 WSW 11 15 6 8 1008.2 1008.2 9.8
25/08:00am 10.9 8.9 10.0 94 0.5 W 11 15 6 8 1007.7 1007.7 9.8
25/07:30am 10.8 8.4 9.9 94 0.5 WNW 13 17 7 9 1007.4 1007.4 9.6
25/07:00am 10.9 7.6 9.7 92 0.6 WNW 17 19 9 10 1007.2 1007.2 9.4
25/06:30am 11.1 8.1 9.4 89 0.9 WNW 15 19 8 10 1007.2 1007.2 9.0
25/06:00am 11.0 7.7 9.4 90 0.8 W 17 20 9 11 1006.9 1006.9 9.0
25/05:30am 11.1 7.2 9.4 89 0.9 WNW 20 28 11 15 1006.8 1006.8 9.0
25/05:00am 11.1 7.4 9.5 90 0.8 WNW 19 22 10 12 1006.5 1006.5 9.0
25/04:30am 11.2 7.5 9.6 90 0.8 NW 19 24 10 13 1006.4 1006.4 9.0
25/04:00am 11.2 8.0 9.9 92 0.7 WNW 17 20 9 11 1006.5 1006.5 9.0
25/03:30am 11.3 8.1 9.9 91 0.7 WNW 17 20 9 11 1006.4 1006.4 9.0
25/03:00am 11.3 8.5 10.0 92 0.7 WNW 15 20 8 11 1006.3 1006.3 9.0
25/02:30am 11.5 8.5 10.6 94 0.5 WNW 17 20 9 11 1006.3 1006.3 9.0
25/02:00am 11.8 9.3 11.0 95 0.4 WNW 15 19 8 10 1006.3 1006.3 9.0
25/01:30am 12.0 9.8 10.9 93 0.6 WNW 13 15 7 8 1006.3 1006.3 8.8
25/01:00am 12.3 9.5 11.4 94 0.5 WNW 17 24 9 13 1006.5 1006.5 8.6
25/12:30am 12.5 11.7 11.7 95 0.4 W 7 11 4 6 1006.4 1006.4 8.6
25/12:00am 12.6 11.0 11.7 94 0.5 W 11 15 6 8 1006.2 1006.2 8.6
 
Date/Time
EST
Temp
°C
App
Temp
°C
Dew
Point
Rel
Hum
%
Delta-T
°C
Wind Press
QNH
hPa
Press
MSL
hPa
Rain
since 9 am
mm
Dir
 
Spd
km/h
Gust
km/h
Spd
kts
Gust
kts
24/11:30pm 12.7 11.3 12.1 96 0.3 WSW 11 15 6 8 1006.2 1006.2 8.6
24/11:00pm 12.9 11.9 12.4 97 0.3 WSW 9 11 5 6 1006.2 1006.2 8.6
24/10:30pm 12.9 11.2 12.4 97 0.3 WNW 13 17 7 9 1005.9 1005.9 8.4
24/10:00pm 12.9 11.2 12.3 96 0.3 WNW 13 19 7 10 1006.1 1006.1 7.8
24/09:30pm 13.0 9.9 12.2 95 0.4 WNW 20 24 11 13 1006.1 1006.1 7.0
24/09:07pm 13.0 9.5 12.2 95 0.4 WNW 22 30 12 16 1006.0 1006.0 6.6
24/09:05pm 13.0 9.1 12.2 95 0.4 WNW 24 30 13 16 1005.9 1005.9 6.6
24/09:00pm 12.9 9.0 12.1 95 0.4 WNW 24 32 13 17 1005.8 1005.8 6.6
24/08:53pm 13.0 8.3 12.1 94 0.5 WNW 28 35 15 19 1005.8 1005.8 6.2
24/08:40pm 13.4 8.6 11.6 89 1.0 W 28 39 15 21 1005.7 1005.7 1.6
24/08:30pm 14.6 10.0 11.2 80 1.8 W 26 39 14 21 1005.7 1005.7 0.0
24/08:24pm 14.7 13.7 12.4 86 1.3 SW 9 37 5 20 1005.5 1005.5 0.0
24/08:00pm 15.2 15.0 13.1 87 1.2 SE 6 6 3 3 1004.7 1004.7 0.0
24/07:30pm 15.6 14.9 13.3 86 1.3 SE 9 11 5 6 1004.5 1004.5 0.0
24/07:00pm 16.4 15.1 12.4 77 2.2 SW 11 19 6 10 1004.4 1004.4 0.0
24/06:30pm 17.1 15.4 11.2 68 3.2 WSW 11 11 6 6 1004.2 1004.2 0.0
24/06:00pm 17.4 16.0 11.0 66 3.5 WSW 9 11 5 6 1003.8 1003.8 0.0
24/05:30pm 17.8 16.4 10.9 64 3.7 W 9 11 5 6 1003.4 1003.4 0.0
24/05:00pm 18.2 16.0 10.8 62 4.0 WSW 13 15 7 8 1003.1 1003.1 0.0
24/04:30pm 18.4 15.4 10.5 60 4.2 W 17 20 9 11 1003.1 1003.1 0.0
24/04:00pm 18.7 16.3 11.3 62 4.1 W 15 22 8 12 1003.1 1003.1 0.0
24/03:30pm 18.3 15.6 11.8 66 3.6 W 17 22 9 12 1002.9 1002.9 0.0
24/03:00pm 18.6 15.4 11.9 65 3.7 W 20 28 11 15 1003.0 1003.0 0.0
24/02:30pm 18.7 15.5 12.0 65 3.7 WNW 20 26 11 14 1003.1 1003.1 0.0
24/02:00pm 18.2 13.8 11.7 66 3.6 W 26 30 14 16 1003.2 1003.2 0.0
24/01:30pm 18.5 14.9 12.0 66 3.6 WNW 22 30 12 16 1003.4 1003.4 0.0
24/01:00pm 18.5 15.3 12.0 66 3.6 WNW 20 30 11 16 1003.5 1003.5 0.0
24/12:30pm 18.7 15.9 12.7 68 3.4 WNW 19 26 10 14 1003.7 1003.7 0.0
24/12:00pm 17.8 14.5 12.9 73 2.8 WNW 22 26 12 14 1004.4 1004.4 0.0
24/11:30am 16.9 13.5 12.6 76 2.4 WNW 22 26 12 14 1004.7 1004.7 0.0
24/11:00am 16.1 11.9 12.3 78 2.1 NW 26 30 14 16 1004.8 1004.8 0.0
24/10:30am 15.7 11.5 12.3 80 1.9 NW 26 32 14 17 1004.7 1004.7 0.0
24/10:00am 15.8 11.6 12.5 81 1.8 WNW 26 32 14 17 1004.9 1004.9 0.0
24/09:55am 15.9 11.7 12.5 80 1.9 WNW 26 32 14 17 1004.9 1004.9 0.0
24/09:37am 16.3 12.7 13.0 81 1.8 WNW 24 32 13 17 1005.1 1005.1 0.0
24/09:30am 16.0 12.8 13.1 83 1.6 WNW 22 30 12 16 1005.2 1005.2 0.0
24/09:00am 15.5 11.5 13.0 85 1.4 WNW 26 33 14 18 1005.3 1005.3 0.0
24/08:30am 14.7 10.6 12.7 88 1.1 WNW 26 32 14 17 1005.3 1005.3 0.0

Other Formats:

Comma delimited format used in spreadsheet applications
http://www.bom.gov.au/fwo/IDV60801/IDV60801.94854.axf

JavaScript Object Notation format (JSON) in row-major order
http://www.bom.gov.au/fwo/IDV60801/IDV60801.94854.json